Time;durP1;ratioP1;P1;durP2;ratioP2;P2;SDS_P1;SDS_P2;PMS_P1;PMS_P2;Temp;Humidity;BMP_temperature;BMP_pressure;BME280_temperature;BME280_humidity;BME280_pressure;Samples;Min_cycle;Max_cycle;Signal;HPM_P1;HPM_P2
2021/07/03 03:34:28;;;;;;;8.37;7.10;;;;;;;18.27;58.77;98901.94;6924630;23;20226;-87
2021/07/03 03:37:51;;;;;;;10.93;8.80;;;;;;;17.69;58.42;98773.41;6873105;28;20279;-87
2021/07/03 03:41:13;;;;;;;8.97;8.07;;;;;;;18.16;59.14;98884.56;6863639;28;20236;-87
2021/07/03 03:44:35;;;;;;;10.17;8.53;;;;;;;18.18;59.21;98893.34;6846027;28;20785;-87
2021/07/03 03:47:56;;;;;;;9.83;8.83;;;;;;;17.98;59.28;98843.94;6846343;28;20201;-88
2021/07/03 03:51:18;;;;;;;9.43;8.43;;;;;;;18.45;58.44;98882.56;6846404;28;20696;-87
2021/07/03 03:54:41;;;;;;;9.00;8.10;;;;;;;17.73;58.26;98769.09;6845731;28;20207;-87
2021/07/03 03:58:02;;;;;;;10.90;8.50;;;;;;;17.74;58.57;98787.13;6846102;28;20231;-87
2021/07/03 04:01:24;;;;;;;9.33;8.43;;;;;;;18.30;58.91;98874.94;6845556;28;20239;-87
2021/07/03 04:04:46;;;;;;;9.53;8.50;;;;;;;18.27;59.17;98878.19;6845497;28;20204;-87
2021/07/03 04:08:07;;;;;;;13.43;8.80;;;;;;;18.28;58.60;98852.53;6846165;29;20212;-87
2021/07/03 04:11:31;;;;;;;9.47;8.47;;;;;;;18.49;58.43;98903.63;6844771;28;20237;-87
2021/07/03 04:14:52;;;;;;;11.10;9.53;;;;;;;18.32;58.94;98891.94;6847938;28;20755;-87
2021/07/03 04:18:14;;;;;;;11.57;9.50;;;;;;;18.37;58.79;98878.34;6845484;28;20227;-86
2021/07/03 04:21:35;;;;;;;10.67;8.37;;;;;;;18.40;58.55;98880.56;6845296;28;20719;-87
2021/07/03 04:24:57;;;;;;;9.93;8.93;;;;;;;18.66;58.26;98895.38;6844728;28;20216;-87
2021/07/03 04:28:20;;;;;;;9.03;8.13;;;;;;;18.93;57.19;98907.19;6845487;28;20207;-87
2021/07/03 04:31:52;;;;;;;10.47;8.30;;;;;;;18.93;56.72;98905.25;6843878;28;20244;-87
2021/07/03 04:35:15;;;;;;;10.93;8.23;;;;;;;18.62;58.41;98902.41;6844147;28;20584;-87
2021/07/03 04:38:36;;;;;;;8.93;7.80;;;;;;;18.80;57.82;98888.47;6844666;28;20256;-87
2021/07/03 04:41:58;;;;;;;9.13;8.17;;;;;;;18.77;57.87;98883.47;6844720;28;20229;-87
2021/07/03 04:45:21;;;;;;;10.77;8.10;;;;;;;18.97;57.52;98894.63;6844308;28;20202;-86
2021/07/03 04:48:43;;;;;;;9.93;8.17;;;;;;;19.09;57.31;98893.41;6844867;28;20216;-88
2021/07/03 04:52:05;;;;;;;9.10;8.20;;;;;;;19.27;57.02;98868.47;6843872;28;20261;-87
2021/07/03 04:55:26;;;;;;;10.00;8.20;;;;;;;18.93;57.60;98894.31;6844541;28;20217;-87
2021/07/03 04:58:48;;;;;;;9.87;8.17;;;;;;;18.96;58.13;98871.97;6844683;28;20226;-87
2021/07/03 05:02:12;;;;;;;9.53;8.63;;;;;;;18.98;57.25;98811.59;6844020;28;20736;-88
2021/07/03 05:05:34;;;;;;;12.40;8.37;;;;;;;19.86;56.76;98874.75;6844322;28;20213;-87
2021/07/03 05:08:56;;;;;;;9.83;7.70;;;;;;;20.17;56.04;98874.69;6844349;28;20580;-87
2021/07/03 05:12:17;;;;;;;9.87;8.43;;;;;;;20.61;55.03;98889.72;6843771;28;20310;-87
2021/07/03 05:15:39;;;;;;;8.90;7.97;;;;;;;20.90;54.37;98887.38;6843739;28;20217;-87
2021/07/03 05:19:02;;;;;;;10.07;7.90;;;;;;;20.94;54.87;98889.31;6843652;28;20233;-87
2021/07/03 05:22:24;;;;;;;8.73;7.83;;;;;;;21.59;52.87;98895.75;6843050;28;20225;-87
2021/07/03 05:25:46;;;;;;;9.83;7.47;;;;;;;22.71;48.79;98876.94;6843918;28;20215;-87
2021/07/03 05:29:07;;;;;;;8.10;7.27;;;;;;;22.73;49.09;98822.47;6843149;28;20217;-87
2021/07/03 05:32:35;;;;;;;7.83;7.03;;;;;;;23.50;46.59;98863.88;6841913;28;20236;-87
2021/07/03 05:35:58;;;;;;;8.07;6.93;;;;;;;23.12;48.91;98866.56;6843295;28;20189;-88
2021/07/03 05:39:20;;;;;;;8.93;7.10;;;;;;;23.45;47.65;98847.38;6842916;28;20228;-86
2021/07/03 05:42:42;;;;;;;8.23;7.40;;;;;;;23.86;46.52;98878.97;6843091;28;20313;-87
2021/07/03 05:46:03;;;;;;;9.10;7.80;;;;;;;23.69;46.87;98811.66;6843390;28;20219;-86
2021/07/03 05:49:25;;;;;;;7.50;6.80;;;;;;;24.61;43.98;98867.22;6842868;28;20213;-88
2021/07/03 05:52:48;;;;;;;7.57;6.90;;;;;;;24.70;44.33;98861.88;6843276;28;20241;-87
2021/07/03 05:56:10;;;;;;;8.70;7.60;;;;;;;24.84;44.02;98869.13;6842772;28;20215;-87
2021/07/03 05:59:32;;;;;;;7.33;6.63;;;;;;;25.40;42.36;98870.03;6842464;28;20239;-86
2021/07/03 06:02:53;;;;;;;7.43;6.73;;;;;;;25.64;42.67;98864.41;6843444;28;20370;-88
2021/07/03 06:06:15;;;;;;;7.60;6.90;;;;;;;25.38;41.63;98866.75;6843032;29;20202;-87
2021/07/03 06:09:38;;;;;;;7.03;6.33;;;;;;;25.39;42.51;98837.19;6843173;28;20237;-87
2021/07/03 06:12:59;;;;;;;7.10;6.40;;;;;;;25.43;41.80;98866.66;6843351;28;20225;-86
2021/07/03 06:16:21;;;;;;;7.50;6.60;;;;;;;25.59;40.86;98831.38;6844325;29;20211;-86
2021/07/03 06:19:43;;;;;;;7.13;6.43;;;;;;;26.22;40.69;98862.84;6843916;28;20236;-87
2021/07/03 06:23:05;;;;;;;7.07;6.47;;;;;;;26.52;38.64;98838.22;6843116;28;20230;-86
2021/07/03 06:26:28;;;;;;;6.87;6.17;;;;;;;25.55;41.58;98838.59;6843086;28;20208;-87
2021/07/03 06:29:50;;;;;;;6.93;5.90;;;;;;;26.69;38.84;98840.38;6843857;28;20215;-86
2021/07/03 06:33:24;;;;;;;6.17;5.63;;;;;;;26.73;39.34;98833.91;6842926;28;20239;-86
2021/07/03 06:36:45;;;;;;;6.67;6.07;;;;;;;26.55;39.10;98836.81;6843708;28;20553;-86
2021/07/03 06:40:08;;;;;;;6.53;5.90;;;;;;;26.83;38.81;98819.88;6843114;28;20243;-87
2021/07/03 06:43:31;;;;;;;8.00;5.90;;;;;;;26.93;37.41;98829.91;6843409;28;20233;-86
2021/07/03 06:46:52;;;;;;;6.23;5.63;;;;;;;27.15;38.07;98827.19;6843372;28;20212;-86
2021/07/03 06:50:24;;;;;;;6.27;5.67;;;;;;;27.47;36.77;98833.38;6843469;28;20689;-86
2021/07/03 06:54:03;;;;;;;6.17;5.57;;;;;;;27.00;37.58;98797.91;6843351;28;20186;-86
2021/07/03 06:57:34;;;;;;;7.37;5.53;;;;;;;27.47;37.23;98782.69;6843033;28;20689;-87
2021/07/03 07:00:57;;;;;;;5.87;5.20;;;;;;;26.61;37.28;98747.88;6848603;28;20224;-88
2021/07/03 07:04:26;;;;;;;6.20;5.60;;;;;;;26.68;36.98;98720.63;6869423;28;20692;-86
2021/07/03 07:07:48;;;;;;;7.77;7.07;;;;;;;27.21;38.99;98793.59;6855879;28;20200;-86
2021/07/03 07:11:09;;;;;;;7.07;6.37;;;;;;;26.96;39.03;98787.78;6842262;28;20232;-87
2021/07/03 07:14:31;;;;;;;7.17;6.57;;;;;;;26.98;40.71;98821.50;6842460;29;20205;-86
2021/07/03 07:17:54;;;;;;;8.07;6.07;;;;;;;26.92;39.75;98773.75;6842939;29;20233;-86
2021/07/03 07:21:16;;;;;;;6.43;5.83;;;;;;;26.87;40.57;98833.91;6842895;28;20593;-86
2021/07/03 07:24:37;;;;;;;6.70;6.10;;;;;;;26.87;40.14;98809.84;6842726;29;20232;-85
2021/07/03 07:27:59;;;;;;;7.00;5.73;;;;;;;26.52;40.74;98821.63;6843029;29;20206;-84
2021/07/03 07:31:22;;;;;;;7.20;6.50;;;;;;;25.65;42.33;98839.25;6841880;28;20248;-86
2021/07/03 07:34:45;;;;;;;6.43;5.83;;;;;;;26.40;40.67;98810.25;6842660;29;20195;-87
2021/07/03 07:38:07;;;;;;;6.80;6.20;;;;;;;25.93;42.54;98821.66;6842094;29;20237;-86
2021/07/03 07:41:28;;;;;;;6.97;6.37;;;;;;;26.22;41.41;98815.88;6842352;28;20225;-87
2021/07/03 07:44:50;;;;;;;7.10;5.80;;;;;;;27.53;39.83;98809.94;6842609;28;20210;-87
2021/07/03 07:48:12;;;;;;;7.67;6.27;;;;;;;27.38;39.86;98754.13;6847267;29;20572;-84
2021/07/03 07:51:35;;;;;;;6.37;5.77;;;;;;;27.66;39.85;98806.28;6846850;28;20331;-85
2021/07/03 07:54:56;;;;;;;7.23;6.53;;;;;;;27.65;39.02;98804.66;6847159;28;20669;-87
2021/07/03 07:58:18;;;;;;;6.70;6.00;;;;;;;27.36;40.49;98797.94;6873954;28;20697;-86
2021/07/03 08:01:39;;;;;;;6.53;5.93;;;;;;;27.69;40.04;98791.00;6874085;28;20238;-86
2021/07/03 08:05:01;;;;;;;6.63;6.00;;;;;;;27.45;40.02;98791.34;6873549;28;20199;-86
2021/07/03 08:08:26;;;;;;;7.10;6.40;;;;;;;26.16;41.35;98721.19;6874575;28;20220;-87
2021/07/03 08:11:47;;;;;;;7.83;6.30;;;;;;;28.00;39.64;98795.47;6873490;28;20229;-86
2021/07/03 08:15:10;;;;;;;6.73;6.13;;;;;;;27.09;39.29;98751.75;6873299;28;20236;-87
2021/07/03 08:18:31;;;;;;;7.40;5.90;;;;;;;27.91;39.43;98780.75;6873390;28;20232;-87
2021/07/03 08:21:57;;;;;;;9.00;5.83;;;;;;;27.89;38.68;98784.97;6873758;28;20221;-87
2021/07/03 08:25:28;;;;;;;6.83;6.13;;;;;;;28.70;37.67;98737.97;6873227;28;20632;-87
2021/07/03 08:28:50;;;;;;;6.33;5.70;;;;;;;27.89;37.79;98737.84;6871642;28;20253;-87
2021/07/03 08:32:13;;;;;;;6.63;5.93;;;;;;;28.77;36.06;98779.94;6870379;28;20229;-87
2021/07/03 08:35:35;;;;;;;6.90;6.30;;;;;;;27.57;37.67;98771.34;6872976;28;20200;-86
2021/07/03 08:38:56;;;;;;;5.87;5.43;;;;;;;28.94;35.36;98774.41;6873163;28;20236;-85
2021/07/03 08:42:19;;;;;;;6.10;5.40;;;;;;;29.47;34.36;98769.38;6873650;28;20221;-85
2021/07/03 08:45:41;;;;;;;5.70;5.20;;;;;;;29.79;34.04;98768.88;6875226;28;20221;-85
2021/07/03 08:49:03;;;;;;;5.57;5.07;;;;;;;29.12;33.95;98755.81;6875366;28;20219;-84
2021/07/03 08:52:25;;;;;;;5.80;5.30;;;;;;;29.88;32.09;98755.75;6875153;28;20596;-86
2021/07/03 08:55:47;;;;;;;6.10;5.50;;;;;;;29.02;33.68;98723.66;6874273;28;20215;-86
2021/07/03 08:59:20;;;;;;;6.47;5.87;;;;;;;30.27;31.58;98737.97;6873470;28;20238;-85
2021/07/03 09:02:44;;;;;;;6.77;5.53;;;;;;;30.74;31.51;98754.28;6873523;28;20235;-86
2021/07/03 09:06:07;;;;;;;6.53;5.87;;;;;;;30.63;32.28;98763.31;6873524;28;20210;-86
2021/07/03 09:09:28;;;;;;;7.27;5.30;;;;;;;31.17;31.60;98767.88;6873167;28;20218;-86
2021/07/03 09:12:51;;;;;;;6.30;5.40;;;;;;;30.94;30.99;98763.78;6873161;28;20274;-86
2021/07/03 09:16:15;;;;;;;7.03;4.50;;;;;;;31.66;29.00;98714.81;6872852;28;20200;-86
2021/07/03 09:19:37;;;;;;;5.67;4.80;;;;;;;31.09;29.02;98655.38;6872687;28;20236;-86
2021/07/03 09:23:04;;;;;;;5.70;5.00;;;;;;;31.04;28.52;98699.34;6872377;28;20730;-86
2021/07/03 09:26:26;;;;;;;8.30;5.30;;;;;;;31.04;28.52;98652.81;6872298;28;20206;-86
2021/07/03 09:29:51;;;;;;;6.27;5.37;;;;;;;30.12;31.17;98711.53;6872190;28;20211;-86
2021/07/03 09:33:27;;;;;;;5.63;5.13;;;;;;;31.68;27.92;98737.63;6871005;28;20236;-86
2021/07/03 09:36:49;;;;;;;4.90;4.50;;;;;;;31.22;26.50;98732.31;6872811;28;20200;-86
2021/07/03 09:40:11;;;;;;;5.20;4.70;;;;;;;31.18;26.26;98730.50;6874666;28;20250;-85
2021/07/03 09:43:33;;;;;;;5.07;4.67;;;;;;;31.67;26.39;98724.81;6876054;28;20215;-86
2021/07/03 09:46:55;;;;;;;5.93;4.50;;;;;;;31.80;25.67;98722.91;6875751;28;20548;-86
2021/07/03 09:50:22;;;;;;;4.50;4.10;;;;;;;32.49;25.69;98726.50;6873974;28;20222;-85
2021/07/03 09:53:45;;;;;;;5.13;4.70;;;;;;;31.98;25.25;98732.69;6874115;28;20204;-86
2021/07/03 09:57:06;;;;;;;4.90;4.50;;;;;;;31.41;26.05;98717.88;6875094;28;20290;-86
2021/07/03 10:00:28;;;;;;;4.17;3.87;;;;;;;31.43;26.17;98651.47;6874249;28;20230;-86
2021/07/03 10:03:50;;;;;;;4.67;4.20;;;;;;;32.01;24.63;98715.28;6872636;28;20210;-86
2021/07/03 10:07:20;;;;;;;4.67;4.27;;;;;;;30.81;26.36;98687.72;6874118;28;20214;-85
2021/07/03 10:10:45;;;;;;;4.60;4.20;;;;;;;30.05;25.72;98702.88;6874617;28;20316;-86
2021/07/03 10:14:07;;;;;;;4.60;4.20;;;;;;;31.15;24.67;98662.38;6874144;28;20254;-86
2021/07/03 10:17:30;;;;;;;5.53;4.60;;;;;;;32.32;25.41;98702.41;6873606;28;20215;-86
2021/07/03 10:20:54;;;;;;;4.70;4.30;;;;;;;32.89;24.53;98700.28;6873987;28;20237;-87
2021/07/03 10:24:18;;;;;;;5.43;4.23;;;;;;;32.90;24.47;98696.31;6875200;28;20210;-86
2021/07/03 10:27:50;;;;;;;4.70;4.30;;;;;;;31.50;23.63;98598.75;6874559;28;20201;-87
2021/07/03 10:31:17;;;;;;;6.63;4.10;;;;;;;29.47;26.80;98636.03;6874777;28;20609;-86
2021/07/03 10:34:39;;;;;;;5.80;4.30;;;;;;;32.14;25.39;98692.59;6872919;28;20229;-86
2021/07/03 10:38:01;;;;;;;5.57;4.30;;;;;;;32.19;23.57;98613.44;6873169;28;20213;-86
2021/07/03 10:41:25;;;;;;;5.03;4.30;;;;;;;32.36;23.50;98689.38;6877180;28;20299;-87
2021/07/03 10:44:47;;;;;;;4.33;4.03;;;;;;;32.93;24.58;98678.84;6870268;28;20212;-86
2021/07/03 10:48:15;;;;;;;4.50;4.10;;;;;;;32.40;23.81;98670.78;6870048;28;20581;-86
2021/07/03 10:51:39;;;;;;;4.77;4.20;;;;;;;32.25;25.11;98677.06;6875142;28;20229;-86
2021/07/03 10:55:03;;;;;;;4.67;4.27;;;;;;;32.77;23.97;98647.22;6890687;28;20745;-86
2021/07/03 10:58:30;;;;;;;4.90;4.43;;;;;;;32.73;24.23;98677.00;6890161;28;20225;-84
2021/07/03 11:01:52;;;;;;;4.47;4.07;;;;;;;32.93;24.65;98672.44;6887059;28;20222;-84
2021/07/03 11:05:15;;;;;;;4.90;4.40;;;;;;;31.66;24.09;98672.19;6883552;28;20209;-84
2021/07/03 11:08:39;;;;;;;4.57;4.17;;;;;;;31.72;25.31;98645.75;6876481;28;20203;-85
2021/07/03 11:12:12;;;;;;;4.47;4.07;;;;;;;32.02;24.90;98659.13;6840002;28;20234;-84
2021/07/03 11:15:38;;;;;;;4.87;4.40;;;;;;;33.11;24.35;98662.59;6873646;28;20204;-84
2021/07/03 11:19:00;;;;;;;4.43;4.03;;;;;;;33.99;23.14;98655.50;6874006;28;20578;-84
2021/07/03 11:22:23;;;;;;;4.20;3.90;;;;;;;32.01;24.41;98649.13;6876706;28;20313;-84
2021/07/03 11:25:46;;;;;;;4.10;3.70;;;;;;;33.27;24.89;98644.75;6878168;28;20203;-84
2021/07/03 11:29:07;;;;;;;4.90;4.10;;;;;;;33.24;22.34;98580.31;6878025;28;20319;-84
2021/07/03 11:32:32;;;;;;;4.07;3.77;;;;;;;33.34;22.24;98639.34;6875989;28;20237;-85
2021/07/03 11:35:54;;;;;;;4.80;4.33;;;;;;;32.68;22.31;98632.59;6878115;28;20207;-84
2021/07/03 11:39:21;;;;;;;4.17;3.70;;;;;;;32.29;24.41;98647.28;6878460;28;20225;-84
2021/07/03 11:42:45;;;;;;;4.77;4.20;;;;;;;31.94;23.79;98597.88;6878541;28;20223;-84
2021/07/03 11:46:07;;;;;;;4.73;4.03;;;;;;;31.79;23.99;98624.47;6879023;28;20239;-84
2021/07/03 11:49:32;;;;;;;4.10;3.77;;;;;;;31.72;24.12;98626.22;6877898;28;20208;-84
2021/07/03 11:52:55;;;;;;;4.23;3.70;;;;;;;32.36;23.62;98622.41;6880399;28;20226;-85
2021/07/03 11:56:17;;;;;;;4.60;4.20;;;;;;;32.39;23.00;98620.88;6877654;28;20206;-84
2021/07/03 11:59:38;;;;;;;3.93;3.63;;;;;;;32.32;23.14;98601.13;6877900;28;20339;-84
2021/07/03 12:03:01;;;;;;;4.90;3.73;;;;;;;33.08;23.34;98596.25;6876569;28;20237;-84
2021/07/03 12:06:24;;;;;;;5.27;4.03;;;;;;;33.46;22.04;98591.75;6877474;28;20752;-84
2021/07/03 12:09:46;;;;;;;3.50;3.20;;;;;;;32.54;21.95;98609.78;6877036;28;20210;-84
2021/07/03 12:13:10;;;;;;;5.73;3.50;;;;;;;32.08;22.34;98587.97;6877070;28;20240;-84
2021/07/03 12:16:31;;;;;;;4.47;3.87;;;;;;;30.53;23.53;98583.63;6877331;28;20213;-84
2021/07/03 12:20:04;;;;;;;4.20;3.80;;;;;;;32.71;23.11;98583.56;6877068;28;20252;-84
2021/07/03 12:23:27;;;;;;;4.10;3.80;;;;;;;33.56;22.43;98596.00;6876973;28;20228;-84
2021/07/03 12:26:49;;;;;;;3.80;3.50;;;;;;;33.10;22.11;98585.53;6877359;28;20209;-85
2021/07/03 12:30:12;;;;;;;4.23;3.67;;;;;;;33.95;20.93;98561.44;6876551;28;20258;-84
2021/07/03 12:33:40;;;;;;;4.73;4.10;;;;;;;33.64;21.65;98559.47;6873232;28;20583;-86
2021/07/03 12:37:03;;;;;;;4.27;3.87;;;;;;;33.25;21.58;98567.97;6876177;28;20281;-85
2021/07/03 12:40:33;;;;;;;3.40;3.20;;;;;;;34.56;21.33;98566.09;6876143;28;20228;-84
2021/07/03 12:43:55;;;;;;;3.30;3.00;;;;;;;33.89;20.87;98560.09;6876750;28;20197;-84
2021/07/03 12:47:18;;;;;;;4.00;3.60;;;;;;;33.43;21.53;98553.31;6877033;28;20221;-85
2021/07/03 12:50:40;;;;;;;3.93;3.63;;;;;;;34.17;21.62;98549.56;6878069;28;20584;-85
2021/07/03 12:54:03;;;;;;;4.50;3.27;;;;;;;33.59;22.26;98551.34;6876624;28;20218;-85
2021/07/03 12:57:26;;;;;;;4.00;3.60;;;;;;;33.74;21.90;98553.31;6876578;28;20588;-84
2021/07/03 13:00:48;;;;;;;3.90;3.60;;;;;;;33.37;21.71;98543.56;6876253;28;20234;-84
2021/07/03 13:04:10;;;;;;;3.90;3.60;;;;;;;34.62;21.27;98547.81;6875984;28;20658;-84
2021/07/03 13:07:32;;;;;;;4.20;3.80;;;;;;;34.92;21.62;98540.47;6875655;28;20658;-84
2021/07/03 13:10:54;;;;;;;4.20;3.80;;;;;;;34.66;20.92;98531.09;6875321;28;20232;-84
2021/07/03 13:14:17;;;;;;;3.60;3.30;;;;;;;34.08;20.88;98543.38;6875504;28;20222;-84
2021/07/03 13:17:38;;;;;;;4.23;3.63;;;;;;;32.16;23.51;98528.47;6875229;28;20219;-84
2021/07/03 13:21:00;;;;;;;3.73;3.43;;;;;;;33.07;22.73;98519.19;6874893;28;20229;-84
2021/07/03 13:24:22;;;;;;;3.50;3.20;;;;;;;33.56;23.05;98540.88;6873909;28;20210;-84
2021/07/03 13:27:43;;;;;;;3.80;3.40;;;;;;;33.88;22.32;98513.69;6874585;28;20209;-84
2021/07/03 13:31:07;;;;;;;3.90;3.60;;;;;;;33.57;21.66;98499.72;6874174;28;20242;-84
2021/07/03 13:34:28;;;;;;;3.37;3.07;;;;;;;34.37;20.30;98521.25;6874249;28;20214;-84
2021/07/03 13:37:50;;;;;;;3.93;3.37;;;;;;;33.77;20.67;98460.31;6874868;28;20214;-84
2021/07/03 13:41:12;;;;;;;3.57;3.27;;;;;;;34.03;21.03;98510.06;6875690;28;20240;-84
2021/07/03 13:44:33;;;;;;;3.50;3.20;;;;;;;32.90;21.05;98506.34;6874943;28;20202;-84
2021/07/03 13:47:56;;;;;;;4.23;3.40;;;;;;;31.02;22.76;98526.19;6875747;28;20205;-84
2021/07/03 13:51:18;;;;;;;4.93;3.70;;;;;;;32.44;21.82;98523.75;6875328;28;20236;-84
2021/07/03 13:54:40;;;;;;;4.10;3.70;;;;;;;31.66;22.62;98521.66;6874912;28;20819;-84
2021/07/03 13:58:01;;;;;;;3.90;3.60;;;;;;;31.16;23.13;98504.38;6875233;28;20595;-84
2021/07/03 14:01:23;;;;;;;4.23;3.50;;;;;;;31.82;22.65;98522.56;6874996;28;20225;-84
2021/07/03 14:04:46;;;;;;;4.13;3.80;;;;;;;33.16;21.85;98509.47;6874672;28;20544;-84
2021/07/03 14:08:08;;;;;;;6.47;3.50;;;;;;;33.59;20.63;98491.78;6875708;28;20220;-85
2021/07/03 14:11:29;;;;;;;3.43;3.13;;;;;;;32.37;21.65;98495.63;6875349;28;20383;-84
2021/07/03 14:14:51;;;;;;;3.87;3.57;;;;;;;30.80;23.02;98443.06;6874957;28;20209;-83
2021/07/03 14:18:13;;;;;;;7.40;3.60;;;;;;;31.05;23.01;98511.56;6873931;28;20208;-84
2021/07/03 14:21:36;;;;;;;3.63;3.20;;;;;;;31.70;21.87;98500.25;6873307;28;20624;-84
2021/07/03 14:24:59;;;;;;;3.47;3.17;;;;;;;31.78;21.87;98505.72;6872233;28;20275;-83
2021/07/03 14:28:20;;;;;;;4.03;3.30;;;;;;;32.11;21.75;98484.06;6874181;28;20299;-84
2021/07/03 14:31:43;;;;;;;3.67;3.37;;;;;;;32.02;21.90;98488.16;6873517;28;20235;-83
2021/07/03 14:35:05;;;;;;;3.77;3.47;;;;;;;30.94;23.38;98486.13;6873611;28;20208;-83
2021/07/03 14:38:29;;;;;;;3.77;3.47;;;;;;;31.36;23.29;98484.03;6873331;28;20219;-86
2021/07/03 14:41:51;;;;;;;4.03;3.40;;;;;;;32.26;22.43;98502.88;6873535;28;20248;-86
2021/07/03 14:45:13;;;;;;;5.23;3.70;;;;;;;31.68;22.55;98464.38;6873102;28;20204;-86
2021/07/03 14:48:36;;;;;;;4.07;3.73;;;;;;;31.35;23.07;98480.41;6873338;28;20212;-86
2021/07/03 14:51:58;;;;;;;3.60;3.27;;;;;;;31.20;22.46;98492.22;6873122;28;20243;-86
2021/07/03 14:55:21;;;;;;;3.73;3.40;;;;;;;31.58;22.09;98494.69;6872829;28;20206;-86
2021/07/03 14:58:42;;;;;;;4.00;3.67;;;;;;;32.31;22.64;98480.28;6873025;28;20213;-86
2021/07/03 15:02:04;;;;;;;3.80;3.50;;;;;;;32.69;22.62;98463.84;6872285;28;20232;-86
2021/07/03 15:05:26;;;;;;;3.63;3.33;;;;;;;31.76;21.87;98421.63;6871751;28;20207;-87
2021/07/03 15:08:47;;;;;;;3.97;3.37;;;;;;;30.56;23.24;98460.50;6873049;28;20217;-86
2021/07/03 15:12:10;;;;;;;3.10;2.90;;;;;;;31.94;23.09;98469.56;6872442;28;20225;-86
2021/07/03 15:15:32;;;;;;;4.30;3.90;;;;;;;32.57;22.00;98472.28;6871794;28;20211;-86
2021/07/03 15:18:54;;;;;;;3.70;3.40;;;;;;;31.56;23.09;98466.34;6872419;28;20209;-86
2021/07/03 15:22:16;;;;;;;4.07;3.50;;;;;;;31.98;22.08;98384.84;6871000;28;20238;-86
2021/07/03 15:25:37;;;;;;;4.00;3.70;;;;;;;31.45;23.46;98426.16;6872432;28;20223;-87
2021/07/03 15:29:01;;;;;;;3.77;3.47;;;;;;;31.90;23.44;98465.88;6872667;28;20210;-86
